Time;durP1;ratioP1;P1;durP2;ratioP2;P2;SDS_P1;SDS_P2;PMS_P1;PMS_P2;Temp;Humidity;BMP_temperature;BMP_pressure;BME280_temperature;BME280_humidity;BME280_pressure;Samples;Min_cycle;Max_cycle;Signal;HPM_P1;HPM_P2
2021/10/13 00:00:34;;;;;;;9.50;6.97;;;;;;;10.94;76.78;99152.97;5072017;28;20141;-38
2021/10/13 00:02:59;;;;;;;8.85;6.97;;;;;;;10.81;76.94;99145.13;5071972;28;20021;-37
2021/10/13 00:05:25;;;;;;;11.40;7.82;;;;;;;11.03;75.78;99150.84;5071823;28;20024;-37
2021/10/13 00:07:50;;;;;;;10.65;6.93;;;;;;;10.84;76.03;99150.03;5071739;28;20381;-38
2021/10/13 00:10:16;;;;;;;9.98;6.82;;;;;;;10.69;76.47;99145.03;5071572;28;20035;-37
2021/10/13 00:12:41;;;;;;;11.25;7.82;;;;;;;10.71;75.91;99134.19;5071795;28;20031;-37
2021/10/13 00:15:09;;;;;;;13.13;8.27;;;;;;;10.86;75.89;99136.50;5071842;28;20412;-37
2021/10/13 00:17:35;;;;;;;9.88;7.40;;;;;;;10.75;75.92;99140.69;5071866;28;20054;-38
2021/10/13 00:20:02;;;;;;;12.10;8.30;;;;;;;10.69;76.07;99134.38;5072300;28;20024;-37
2021/10/13 00:22:28;;;;;;;14.07;8.07;;;;;;;10.83;75.12;99145.72;5072348;28;20017;-38
2021/10/13 00:24:53;;;;;;;11.93;8.25;;;;;;;10.90;75.41;99143.00;5072151;28;20097;-38
2021/10/13 00:27:19;;;;;;;9.98;7.40;;;;;;;11.02;74.40;99145.75;5072442;28;20032;-37
2021/10/13 00:29:44;;;;;;;11.35;7.97;;;;;;;10.88;74.90;99145.06;5070638;28;20040;-38
2021/10/13 00:32:09;;;;;;;12.02;7.07;;;;;;;10.81;74.74;99136.34;5071808;28;20051;-38
2021/10/13 00:34:35;;;;;;;12.68;8.15;;;;;;;10.79;74.81;99139.22;5072206;28;20036;-37
2021/10/13 00:37:02;;;;;;;12.52;8.65;;;;;;;10.72;75.82;99143.81;5062668;28;20025;-38
2021/10/13 00:39:28;;;;;;;12.82;7.93;;;;;;;10.90;74.13;99132.34;5051961;28;20528;-38
2021/10/13 00:41:53;;;;;;;10.82;7.68;;;;;;;10.81;74.81;99137.13;5052040;28;20162;-38
2021/10/13 00:44:18;;;;;;;11.40;8.23;;;;;;;10.81;74.97;99134.47;5051508;28;20028;-38
2021/10/13 00:46:44;;;;;;;10.70;7.70;;;;;;;10.68;75.55;99134.59;5051835;28;20021;-38
2021/10/13 00:49:09;;;;;;;10.52;7.25;;;;;;;10.55;75.07;99132.91;5050381;28;20021;-38
2021/10/13 00:51:35;;;;;;;11.65;7.18;;;;;;;10.38;76.15;99137.94;5051655;28;20032;-38
2021/10/13 00:54:00;;;;;;;10.52;7.07;;;;;;;10.47;75.96;99133.16;5051535;28;20028;-38
2021/10/13 00:56:26;;;;;;;11.13;7.35;;;;;;;10.31;75.83;99137.97;5051870;28;20032;-38
2021/10/13 00:58:52;;;;;;;10.23;6.85;;;;;;;10.46;76.34;99127.03;5051523;28;20031;-38
2021/10/13 01:01:32;;;;;;;11.65;6.88;;;;;;;10.56;75.65;99123.88;5051421;28;20025;-38
2021/10/13 01:04:16;;;;;;;;;;;;;;;10.68;74.58;99122.13;5050394;28;20107;-37
2021/10/13 01:07:19;;;;;;;10.30;6.93;;;;;;;10.50;75.23;99128.22;5051290;28;19967;-38
2021/10/13 01:09:55;;;;;;;10.20;6.85;;;;;;;10.53;74.93;99132.31;5051378;28;20074;-38
2021/10/13 01:12:39;;;;;;;9.77;6.53;;;;;;;10.80;74.48;99124.88;5049882;28;20021;-38
2021/10/13 01:15:13;;;;;;;8.45;6.40;;;;;;;10.78;74.48;99123.47;5051205;28;20029;-37
2021/10/13 01:17:42;;;;;;;11.63;6.80;;;;;;;10.73;73.96;99124.13;5051521;28;20032;-37
2021/10/13 01:20:40;;;;;;;10.27;6.30;;;;;;;10.36;75.46;99134.69;5033608;28;20350;-38
2021/10/13 01:23:22;;;;;;;8.07;6.15;;;;;;;10.66;74.62;99128.69;5029781;28;20094;-38
2021/10/13 01:26:02;;;;;;;9.00;6.10;;;;;;;10.72;74.47;99127.84;5049909;28;20021;-38
2021/10/13 01:28:32;;;;;;;9.40;6.45;;;;;;;10.74;73.50;99131.09;5051029;28;20487;-38
2021/10/13 01:31:00;;;;;;;10.77;6.45;;;;;;;10.68;73.78;99121.31;5049452;28;20155;-38
2021/10/13 01:33:40;;;;;;;9.00;6.40;;;;;;;10.66;73.63;99134.84;5033317;28;20094;-38
2021/10/13 01:36:07;;;;;;;9.38;6.40;;;;;;;10.74;72.85;99123.09;5049355;28;20045;-38
2021/10/13 01:38:39;;;;;;;8.90;6.80;;;;;;;10.74;73.29;99141.72;5049550;28;20032;-38
2021/10/13 01:41:05;;;;;;;8.05;5.97;;;;;;;10.79;72.76;99141.06;5049322;28;20020;-37
2021/10/13 01:43:35;;;;;;;8.35;5.85;;;;;;;10.71;73.21;99137.66;5032979;28;20017;-37
2021/10/13 01:46:01;;;;;;;8.38;6.25;;;;;;;10.55;73.71;99136.38;5033316;28;20021;-38
2021/10/13 01:48:26;;;;;;;9.05;6.15;;;;;;;10.76;73.52;99131.69;5049878;28;20721;-37
2021/10/13 01:50:52;;;;;;;9.13;6.45;;;;;;;10.64;73.63;99128.09;5033541;28;20032;-38
2021/10/13 01:53:19;;;;;;;7.93;5.93;;;;;;;10.75;72.91;99144.16;5063138;28;20025;-38
2021/10/13 01:55:45;;;;;;;8.90;6.03;;;;;;;10.81;72.95;99145.13;5052788;28;20044;-37
2021/10/13 01:58:10;;;;;;;8.80;6.00;;;;;;;10.89;72.33;99144.03;5070798;28;20056;-38
2021/10/13 02:00:36;;;;;;;10.75;5.97;;;;;;;10.77;72.77;99141.28;5069466;28;20530;-38
2021/10/13 02:03:01;;;;;;;10.38;6.45;;;;;;;10.78;72.96;99148.25;5069660;28;20055;-38
2021/10/13 02:05:27;;;;;;;9.68;5.78;;;;;;;10.79;72.40;99141.88;5052831;28;20361;-38
2021/10/13 02:07:52;;;;;;;8.95;5.75;;;;;;;10.66;72.55;99137.50;5051060;28;20142;-38
2021/10/13 02:10:20;;;;;;;9.63;5.43;;;;;;;10.83;72.38;99143.06;5049219;28;20025;-37
2021/10/13 02:12:45;;;;;;;8.57;6.03;;;;;;;10.65;72.78;99153.69;5048851;28;20453;-37
2021/10/13 02:15:11;;;;;;;8.98;6.28;;;;;;;10.84;72.37;99150.03;5049368;28;20086;-37
2021/10/13 02:17:38;;;;;;;8.98;6.00;;;;;;;10.90;71.42;99153.66;5050071;28;20039;-38
2021/10/13 02:20:04;;;;;;;6.97;5.25;;;;;;;10.78;72.06;99147.44;5049104;28;20029;-37
2021/10/13 02:22:29;;;;;;;8.02;5.85;;;;;;;10.79;72.33;99157.03;5050733;28;20076;-37
2021/10/13 02:24:55;;;;;;;8.60;5.95;;;;;;;10.70;72.55;99154.66;5032491;28;20025;-38
2021/10/13 02:27:33;;;;;;;9.68;5.97;;;;;;;10.72;71.99;99149.94;5050512;28;20095;-37
2021/10/13 02:29:58;;;;;;;8.18;5.88;;;;;;;10.86;70.93;99163.13;5032808;28;20029;-37
2021/10/13 02:32:24;;;;;;;9.35;6.57;;;;;;;10.86;72.31;99161.25;5050209;28;20029;-37
2021/10/13 02:34:49;;;;;;;9.07;6.45;;;;;;;10.76;71.89;99160.97;5050374;28;20120;-38
2021/10/13 02:37:15;;;;;;;8.38;5.78;;;;;;;10.77;72.05;99165.22;5048870;28;20135;-38
2021/10/13 02:39:40;;;;;;;8.27;6.20;;;;;;;10.72;71.65;99165.09;5050537;28;20100;-38
2021/10/13 02:42:06;;;;;;;9.25;6.43;;;;;;;11.06;70.61;99163.75;5050228;28;20028;-38
2021/10/13 02:44:31;;;;;;;9.43;6.28;;;;;;;11.03;69.88;99160.69;5050087;28;20468;-39
2021/10/13 02:47:23;;;;;;;7.72;5.70;;;;;;;10.97;71.50;99162.41;5048789;28;20083;-38
2021/10/13 02:49:55;;;;;;;10.63;6.30;;;;;;;10.75;71.53;99164.63;5049748;28;20045;-40
2021/10/13 02:52:24;;;;;;;9.48;6.45;;;;;;;10.87;70.42;99170.88;5033466;28;20477;-39
2021/10/13 02:55:03;;;;;;;8.90;6.60;;;;;;;10.96;70.50;99174.06;5054082;28;20406;-38
2021/10/13 02:57:52;;;;;;;8.80;6.03;;;;;;;10.54;72.36;99177.28;5036423;28;20417;-38
2021/10/13 03:00:18;;;;;;;10.52;6.45;;;;;;;10.35;73.21;99179.06;5052602;28;20104;-38
2021/10/13 03:02:57;;;;;;;9.40;6.57;;;;;;;10.37;73.11;99178.84;5052436;28;20059;-38
2021/10/13 03:05:23;;;;;;;10.50;6.63;;;;;;;10.51;72.13;99183.06;5053436;28;20159;-38
2021/10/13 03:07:48;;;;;;;12.18;7.88;;;;;;;10.56;71.99;99183.19;5053563;28;20025;-38
2021/10/13 03:10:14;;;;;;;19.30;11.48;;;;;;;10.72;71.35;99181.06;5034694;28;20677;-39
2021/10/13 03:12:42;;;;;;;12.48;8.43;;;;;;;10.66;71.09;99181.91;5035411;28;20025;-38
2021/10/13 03:15:09;;;;;;;15.18;9.63;;;;;;;10.36;72.50;99182.56;5053265;28;20112;-39
2021/10/13 03:17:34;;;;;;;9.68;6.75;;;;;;;10.46;72.57;99180.22;5052221;28;20548;-38
2021/10/13 03:20:00;;;;;;;10.25;7.22;;;;;;;10.50;72.52;99181.41;5053596;28;20045;-36
2021/10/13 03:22:25;;;;;;;11.10;6.88;;;;;;;10.49;72.27;99182.47;5052101;28;20095;-37
2021/10/13 03:24:51;;;;;;;9.75;6.97;;;;;;;10.55;72.39;99183.44;5053468;28;20128;-37
2021/10/13 03:27:16;;;;;;;11.30;6.82;;;;;;;10.54;72.72;99185.28;5053427;28;20477;-37
2021/10/13 03:29:42;;;;;;;9.43;6.90;;;;;;;10.45;73.26;99181.28;5053289;28;20029;-37
2021/10/13 03:32:09;;;;;;;9.65;7.07;;;;;;;10.49;72.58;99182.47;5052773;28;20047;-37
2021/10/13 03:34:34;;;;;;;10.07;7.35;;;;;;;10.44;73.43;99187.59;5053622;28;20021;-37
2021/10/13 03:37:00;;;;;;;11.77;7.28;;;;;;;10.49;72.90;99185.13;5053244;28;20028;-37
2021/10/13 03:39:25;;;;;;;10.18;6.80;;;;;;;10.47;73.34;99183.69;5052693;28;20021;-38
2021/10/13 03:41:51;;;;;;;10.20;7.25;;;;;;;10.47;73.09;99179.22;5052960;28;20405;-38
2021/10/13 03:44:19;;;;;;;9.27;6.97;;;;;;;10.41;74.20;99182.72;5052873;28;20024;-39
2021/10/13 03:46:44;;;;;;;9.65;6.93;;;;;;;10.46;73.75;99180.22;5052985;28;20105;-37
2021/10/13 03:49:09;;;;;;;9.05;6.47;;;;;;;10.57;72.70;99182.19;5052780;28;20025;-37
2021/10/13 03:51:35;;;;;;;10.13;7.00;;;;;;;10.67;72.20;99175.56;5052642;28;20025;-37
2021/10/13 03:54:00;;;;;;;9.98;7.07;;;;;;;10.61;72.34;99193.22;5071781;28;20025;-38
2021/10/13 03:56:29;;;;;;;10.27;6.50;;;;;;;10.43;72.82;99185.16;5058210;28;20024;-37
2021/10/13 03:58:55;;;;;;;10.23;6.75;;;;;;;10.47;72.66;99189.84;5045678;28;20021;-38
2021/10/13 04:01:20;;;;;;;9.90;6.85;;;;;;;10.34;73.92;99187.28;5052499;28;20024;-37
2021/10/13 04:03:45;;;;;;;9.00;6.03;;;;;;;10.52;72.91;99181.22;5052501;28;20075;-38
2021/10/13 04:06:11;;;;;;;8.55;6.35;;;;;;;10.94;72.84;99176.13;5052359;28;20021;-37
2021/10/13 04:08:36;;;;;;;9.20;6.47;;;;;;;10.72;72.74;99181.06;5052220;28;20040;-37
2021/10/13 04:11:02;;;;;;;9.57;6.72;;;;;;;10.75;72.48;99180.59;5052304;28;20032;-37
2021/10/13 04:13:27;;;;;;;8.07;6.13;;;;;;;10.50;73.27;99176.09;5052785;28;20175;-37
2021/10/13 04:15:53;;;;;;;10.05;6.18;;;;;;;10.56;72.00;99185.06;5052377;28;20052;-37
2021/10/13 04:18:18;;;;;;;8.75;6.20;;;;;;;10.54;72.35;99185.28;5052687;28;20017;-37
2021/10/13 04:20:44;;;;;;;10.32;7.13;;;;;;;10.63;71.94;99195.66;5051940;28;20449;-37
2021/10/13 04:23:09;;;;;;;33.15;18.33;;;;;;;10.58;72.50;99193.63;5051548;28;20025;-37
2021/10/13 04:25:35;;;;;;;10.60;6.88;;;;;;;10.60;73.05;99198.75;5051492;28;20052;-37
2021/10/13 04:28:00;;;;;;;12.65;6.65;;;;;;;10.81;73.43;99189.56;5057421;28;20469;-37
2021/10/13 04:30:26;;;;;;;10.90;7.28;;;;;;;10.93;72.46;99199.28;5038173;28;20064;-37
2021/10/13 04:32:51;;;;;;;9.77;6.30;;;;;;;10.73;72.22;99207.44;5047883;28;20033;-37
2021/10/13 04:35:16;;;;;;;10.02;6.45;;;;;;;10.80;72.84;99210.06;5051546;28;20091;-37
2021/10/13 04:37:42;;;;;;;9.18;6.47;;;;;;;10.77;71.21;99213.13;5051123;28;20028;-37
2021/10/13 04:40:08;;;;;;;9.93;7.10;;;;;;;10.70;71.83;99215.03;5050802;28;20024;-37
2021/10/13 04:42:33;;;;;;;8.98;6.63;;;;;;;10.80;71.50;99215.38;5050435;28;20009;-38
2021/10/13 04:44:59;;;;;;;9.45;7.22;;;;;;;10.71;71.59;99219.34;5049805;28;20075;-37
2021/10/13 04:47:25;;;;;;;11.07;7.40;;;;;;;10.47;72.20;99221.78;5050046;28;20507;-37
2021/10/13 04:49:50;;;;;;;11.15;7.78;;;;;;;10.61;72.13;99219.81;5050073;28;20025;-37
2021/10/13 04:52:16;;;;;;;11.13;7.60;;;;;;;10.71;72.33;99219.34;5049701;28;20163;-37
2021/10/13 04:54:41;;;;;;;12.13;8.13;;;;;;;11.06;70.99;99224.16;5049989;28;20031;-37
2021/10/13 04:57:07;;;;;;;11.25;8.10;;;;;;;10.98;71.29;99235.09;5049591;28;20041;-37
2021/10/13 04:59:32;;;;;;;13.10;8.00;;;;;;;10.65;71.13;99229.00;5048118;28;20575;-38
2021/10/13 05:01:57;;;;;;;13.65;8.40;;;;;;;10.76;71.50;99238.94;5048822;28;20021;-38
2021/10/13 05:04:23;;;;;;;13.93;8.60;;;;;;;11.08;70.11;99246.88;5049801;28;20017;-38
2021/10/13 05:06:49;;;;;;;16.92;11.88;;;;;;;11.25;71.07;99239.16;5049632;28;20021;-38
2021/10/13 05:09:15;;;;;;;32.70;19.23;;;;;;;11.09;71.62;99247.69;5049434;28;20426;-38
2021/10/13 05:11:40;;;;;;;67.43;35.63;;;;;;;11.19;69.78;99249.84;5049330;28;20104;-37
2021/10/13 05:14:06;;;;;;;14.05;9.50;;;;;;;11.18;70.30;99254.38;5049814;28;20028;-37
2021/10/13 05:16:31;;;;;;;13.57;8.80;;;;;;;11.23;69.00;99256.34;5049887;28;20473;-37
2021/10/13 05:18:57;;;;;;;12.38;8.30;;;;;;;11.20;69.58;99257.63;5050611;28;20449;-37
2021/10/13 05:21:22;;;;;;;14.60;9.00;;;;;;;11.32;68.28;99263.03;5050151;28;20465;-37
2021/10/13 05:23:48;;;;;;;14.05;8.43;;;;;;;11.52;68.75;99269.00;5050706;28;20017;-37
2021/10/13 05:26:13;;;;;;;24.98;20.15;;;;;;;11.48;69.64;99265.13;5050182;28;20519;-37
2021/10/13 05:28:39;;;;;;;12.43;8.50;;;;;;;11.60;68.02;99273.22;5050234;28;20036;-37
2021/10/13 05:31:04;;;;;;;14.85;8.85;;;;;;;11.52;68.99;99274.31;5050290;28;20210;-37
2021/10/13 05:33:30;;;;;;;12.45;8.25;;;;;;;11.41;69.07;99280.38;5049851;28;20036;-37
2021/10/13 05:35:55;;;;;;;11.40;7.80;;;;;;;11.48;68.70;99288.28;5049416;28;20032;-38
2021/10/13 05:38:21;;;;;;;13.13;8.18;;;;;;;11.65;68.02;99289.34;5050305;28;20083;-38
2021/10/13 05:40:46;;;;;;;12.25;8.13;;;;;;;11.68;68.33;99296.09;5050054;28;20036;-38
2021/10/13 05:43:12;;;;;;;12.48;8.38;;;;;;;11.79;68.99;99298.03;5050135;28;20043;-38
2021/10/13 05:45:37;;;;;;;12.80;8.20;;;;;;;11.79;68.05;99310.53;5049856;28;20110;-46
2021/10/13 05:48:03;;;;;;;13.32;8.07;;;;;;;11.82;68.04;99304.75;5049744;28;20029;-47
2021/10/13 05:50:28;;;;;;;12.32;8.45;;;;;;;11.80;68.39;99312.97;5049556;28;20373;-48
2021/10/13 05:52:54;;;;;;;13.05;8.40;;;;;;;11.78;67.99;99315.03;5049608;28;20029;-47
2021/10/13 05:55:19;;;;;;;14.23;8.00;;;;;;;11.77;68.82;99317.94;5049788;28;20037;-50
2021/10/13 05:57:45;;;;;;;12.20;8.48;;;;;;;11.99;67.71;99315.66;5049837;28;20107;-47
2021/10/13 06:00:11;;;;;;;13.48;8.85;;;;;;;12.09;67.16;99324.78;5049845;28;20441;-47
2021/10/13 06:02:36;;;;;;;12.82;8.90;;;;;;;12.11;67.18;99327.22;5048172;28;20489;-47
2021/10/13 06:05:03;;;;;;;16.13;8.13;;;;;;;11.70;68.33;99332.13;5049507;28;20075;-47
2021/10/13 06:07:28;;;;;;;13.18;8.82;;;;;;;11.79;67.82;99329.19;5049791;28;20078;-48
2021/10/13 06:09:53;;;;;;;16.08;10.98;;;;;;;11.63;68.66;99312.75;5048826;28;20032;-47
2021/10/13 06:12:19;;;;;;;12.40;8.65;;;;;;;11.82;68.11;99339.41;5048416;28;20682;-47
2021/10/13 06:14:44;;;;;;;12.70;9.27;;;;;;;11.61;69.40;99338.78;5049267;28;20025;-48
2021/10/13 06:17:10;;;;;;;13.25;8.85;;;;;;;11.80;68.67;99338.81;5048605;28;20082;-49
2021/10/13 06:19:35;;;;;;;13.10;8.95;;;;;;;11.99;67.18;99343.13;5049197;28;20031;-48
2021/10/13 06:22:01;;;;;;;14.95;9.68;;;;;;;12.04;67.67;99342.50;5049226;28;20405;-48
2021/10/13 06:24:26;;;;;;;14.75;9.70;;;;;;;12.33;66.52;99352.38;5048850;28;20028;-47
2021/10/13 06:26:51;;;;;;;16.98;11.45;;;;;;;12.20;67.25;99349.88;5048788;28;20025;-47
2021/10/13 06:29:17;;;;;;;17.15;12.32;;;;;;;12.16;66.32;99347.88;5052850;28;20036;-47
2021/10/13 06:31:42;;;;;;;13.85;9.35;;;;;;;12.22;66.44;99353.16;5052457;28;20060;-47
2021/10/13 06:34:08;;;;;;;14.18;9.32;;;;;;;12.30;66.15;99355.50;5052638;28;20024;-50
2021/10/13 06:36:33;;;;;;;15.82;9.55;;;;;;;12.30;65.90;99363.53;5052734;28;20415;-48
2021/10/13 06:38:59;;;;;;;14.13;9.02;;;;;;;12.54;64.51;99360.16;5052593;28;20029;-47
2021/10/13 06:41:27;;;;;;;13.45;9.18;;;;;;;12.75;64.82;99362.31;5052513;28;20496;-48
2021/10/13 06:43:53;;;;;;;15.90;9.88;;;;;;;12.62;64.80;99363.34;5051984;28;20189;-47
2021/10/13 06:46:18;;;;;;;14.15;9.40;;;;;;;13.06;63.15;99373.78;5052839;28;20523;-47
2021/10/13 06:48:44;;;;;;;13.60;8.95;;;;;;;13.07;63.49;99378.09;5053305;28;20036;-49
2021/10/13 06:51:09;;;;;;;12.10;8.43;;;;;;;12.74;63.58;99378.56;5053054;28;20454;-47
2021/10/13 06:53:34;;;;;;;11.48;8.10;;;;;;;12.21;63.42;99370.19;5053130;28;20029;-38
2021/10/13 06:56:00;;;;;;;12.38;8.40;;;;;;;12.43;62.73;99385.72;5053295;28;20032;-38
2021/10/13 06:58:25;;;;;;;13.07;8.00;;;;;;;12.35;62.41;99384.19;5053134;28;20130;-37
2021/10/13 07:00:51;;;;;;;13.65;9.02;;;;;;;12.49;62.22;99383.00;5052461;28;20035;-38
2021/10/13 07:03:16;;;;;;;11.30;8.13;;;;;;;12.63;62.06;99388.16;5052545;28;20080;-38
2021/10/13 07:05:42;;;;;;;12.18;7.93;;;;;;;12.84;61.01;99389.53;5052649;28;20032;-38
2021/10/13 07:08:07;;;;;;;10.85;8.20;;;;;;;13.03;60.10;99385.75;5050246;28;20039;-38
2021/10/13 07:10:33;;;;;;;12.07;8.27;;;;;;;12.99;59.76;99399.78;5051258;28;20028;-38
2021/10/13 07:12:58;;;;;;;13.32;8.93;;;;;;;13.09;59.50;99394.69;5051313;28;20036;-38
2021/10/13 07:15:24;;;;;;;13.43;8.60;;;;;;;13.27;59.36;99397.31;5051629;28;20033;-37
2021/10/13 07:17:49;;;;;;;13.02;8.57;;;;;;;13.21;59.12;99398.25;5051934;28;20385;-38
2021/10/13 07:20:15;;;;;;;12.02;8.23;;;;;;;13.23;58.79;99412.19;5051466;28;20025;-38
2021/10/13 07:22:40;;;;;;;11.75;8.35;;;;;;;13.36;58.47;99405.81;5051819;28;20029;-37
2021/10/13 07:25:06;;;;;;;13.45;8.55;;;;;;;13.68;57.79;99409.00;5052608;28;20036;-38
2021/10/13 07:27:32;;;;;;;10.73;8.25;;;;;;;13.89;57.96;99410.28;5051664;28;20107;-38
2021/10/13 07:30:02;;;;;;;13.23;8.27;;;;;;;13.52;57.65;99411.53;5052709;28;20036;-38
2021/10/13 07:32:30;;;;;;;12.10;9.10;;;;;;;13.68;57.61;99418.88;5050753;28;20213;-37
2021/10/13 07:34:55;;;;;;;11.98;8.70;;;;;;;13.48;58.38;99424.56;5050873;28;20099;-38
2021/10/13 07:37:21;;;;;;;12.65;8.68;;;;;;;13.86;56.38;99416.13;5050662;28;20036;-38
2021/10/13 07:39:46;;;;;;;11.20;8.13;;;;;;;13.27;57.21;99423.22;5050579;28;20029;-38
2021/10/13 07:42:12;;;;;;;10.48;8.20;;;;;;;13.51;57.66;99416.09;5051101;28;20031;-38
2021/10/13 07:44:38;;;;;;;13.43;8.35;;;;;;;13.65;58.00;99422.00;5033395;28;20052;-37
2021/10/13 07:47:03;;;;;;;11.43;8.50;;;;;;;13.71;58.57;99422.94;5051231;28;20029;-38
2021/10/13 07:49:29;;;;;;;9.82;7.78;;;;;;;13.75;57.44;99421.47;5051357;28;20036;-38
2021/10/13 07:51:54;;;;;;;10.88;8.02;;;;;;;13.67;57.03;99426.09;5050710;28;20028;-37
2021/10/13 07:54:20;;;;;;;10.30;7.95;;;;;;;13.65;57.30;99436.22;5051188;28;20114;-39
2021/10/13 07:56:47;;;;;;;10.55;8.32;;;;;;;13.88;56.70;99442.63;5050899;28;20473;-39
2021/10/13 07:59:13;;;;;;;11.60;8.48;;;;;;;13.81;56.52;99432.03;5047067;28;20040;-38
2021/10/13 08:01:38;;;;;;;11.55;8.27;;;;;;;13.72;57.10;99437.97;5050252;28;20025;-38
2021/10/13 08:04:04;;;;;;;14.02;8.43;;;;;;;13.87;56.50;99435.63;5050570;28;20496;-38
2021/10/13 08:06:29;;;;;;;13.07;9.07;;;;;;;14.43;55.23;99431.53;5056488;28;20143;-38
2021/10/13 08:08:55;;;;;;;15.80;8.85;;;;;;;14.58;54.93;99438.25;5048504;28;20102;-38
2021/10/13 08:11:20;;;;;;;13.25;8.60;;;;;;;15.37;53.04;99443.75;5050355;28;20127;-38
2021/10/13 08:13:46;;;;;;;12.57;8.65;;;;;;;15.86;51.30;99442.41;5052219;28;20474;-38
2021/10/13 08:16:11;;;;;;;12.13;9.27;;;;;;;16.29;50.36;99439.00;5059715;28;20033;-39
2021/10/13 08:18:37;;;;;;;13.07;8.90;;;;;;;15.49;52.89;99440.19;5051118;28;20535;-38
2021/10/13 08:21:02;;;;;;;11.15;9.15;;;;;;;16.44;50.97;99435.69;5050828;28;20029;-38
2021/10/13 08:23:28;;;;;;;14.68;9.68;;;;;;;16.55;50.58;99440.13;5051131;28;20032;-38
2021/10/13 08:25:58;;;;;;;13.32;9.40;;;;;;;16.29;50.49;99412.13;5051058;28;20051;-39
2021/10/13 08:28:24;;;;;;;13.30;9.15;;;;;;;17.06;51.83;99428.34;5050811;28;20060;-46
2021/10/13 08:30:49;;;;;;;13.10;8.68;;;;;;;17.11;50.13;99426.53;5010686;28;1165952;-47
2021/10/13 08:33:15;;;;;;;14.50;9.50;;;;;;;16.50;49.62;99426.63;5050840;28;20040;-47
2021/10/13 08:35:40;;;;;;;13.73;9.40;;;;;;;16.12;51.20;99433.66;5051958;28;20029;-47
2021/10/13 08:38:06;;;;;;;14.77;9.60;;;;;;;16.29;51.97;99441.69;5051959;28;20029;-47
2021/10/13 08:40:31;;;;;;;12.57;9.02;;;;;;;16.19;51.88;99441.56;5051231;28;20028;-47
2021/10/13 08:43:01;;;;;;;14.40;9.27;;;;;;;15.66;53.19;99440.19;5050586;28;20044;-47
2021/10/13 08:45:27;;;;;;;;;;;;;;;16.13;51.60;99432.63;5052289;28;20055;-48
2021/10/13 08:47:52;;;;;;;12.48;9.07;;;;;;;15.99;51.92;99426.78;5051303;28;20424;-48
2021/10/13 08:50:20;;;;;;;12.93;9.25;;;;;;;16.42;50.83;99438.63;5050374;28;20025;-48
2021/10/13 08:52:46;;;;;;;12.57;9.48;;;;;;;17.01;50.01;99434.50;5050636;28;20024;-48
2021/10/13 08:55:12;;;;;;;16.13;10.10;;;;;;;17.10;50.00;99442.94;5051417;28;20025;-47
2021/10/13 08:57:38;;;;;;;14.95;9.45;;;;;;;16.69;48.92;99437.88;5051070;28;20469;-49
2021/10/13 09:00:04;;;;;;;15.40;11.48;;;;;;;16.72;50.59;99445.44;5051067;28;20028;-49
2021/10/13 09:02:40;;;;;;;15.20;11.75;;;;;;;16.78;50.27;99441.75;5051124;28;20485;-51
2021/10/13 09:05:16;;;;;;;15.57;10.23;;;;;;;16.96;49.70;99439.81;5050696;28;20020;-50
2021/10/13 09:07:53;;;;;;;12.82;9.90;;;;;;;17.34;49.48;99435.34;5050546;28;20130;-50
2021/10/13 09:10:44;;;;;;;13.02;8.90;;;;;;;16.90;48.55;99444.31;5050799;28;20470;-48
2021/10/13 09:13:18;;;;;;;12.80;9.13;;;;;;;16.58;48.86;99449.56;5048802;28;20041;-47
2021/10/13 09:15:53;;;;;;;14.75;9.10;;;;;;;16.49;49.11;99443.03;5050533;28;20028;-47
2021/10/13 09:18:22;;;;;;;12.77;8.90;;;;;;;15.91;49.78;99445.97;5050829;28;20029;-47
2021/10/13 09:20:49;;;;;;;12.85;9.15;;;;;;;15.59;49.83;99441.19;5051117;28;20032;-47
2021/10/13 09:23:14;;;;;;;11.70;8.43;;;;;;;15.39;50.40;99440.84;5050713;28;20020;-47
2021/10/13 09:25:40;;;;;;;9.95;8.25;;;;;;;16.28;49.36;99455.34;5050476;28;20021;-47
2021/10/13 09:28:05;;;;;;;14.00;9.15;;;;;;;16.34;50.30;99451.69;5050552;28;20033;-48
2021/10/13 09:30:39;;;;;;;12.32;9.45;;;;;;;16.27;48.27;99451.06;5050720;28;20041;-45
2021/10/13 09:33:22;;;;;;;12.32;8.93;;;;;;;15.67;49.57;99431.91;5050696;28;20052;-48
2021/10/13 09:35:49;;;;;;;12.15;8.98;;;;;;;15.34;50.18;99448.78;5050771;28;20082;-48
2021/10/13 09:38:19;;;;;;;11.13;8.48;;;;;;;15.91;49.45;99451.34;5051015;28;20418;-48
2021/10/13 09:40:45;;;;;;;14.27;9.60;;;;;;;15.78;50.77;99451.69;5050631;28;20025;-47
2021/10/13 09:43:40;;;;;;;12.27;8.93;;;;;;;15.85;50.50;99459.56;5050774;28;20096;-47
2021/10/13 09:46:07;;;;;;;14.10;9.48;;;;;;;16.42;48.22;99457.44;5045036;28;20103;-47
2021/10/13 09:48:34;;;;;;;14.07;10.63;;;;;;;16.51;49.34;99457.81;5050212;28;20028;-50
2021/10/13 09:51:17;;;;;;;13.38;10.13;;;;;;;16.73;48.31;99460.47;5050095;28;20028;-48
2021/10/13 09:53:42;;;;;;;13.02;9.48;;;;;;;16.56;48.20;99451.69;5049990;28;20025;-49
2021/10/13 09:56:31;;;;;;;12.48;9.10;;;;;;;17.13;47.83;99459.34;5050542;28;20107;-51
2021/10/13 09:59:16;;;;;;;11.63;9.10;;;;;;;17.08;47.18;99455.81;5050574;28;20054;-50
2021/10/13 10:01:49;;;;;;;11.43;8.55;;;;;;;16.99;47.07;99461.63;5049987;28;20021;-49
2021/10/13 10:04:19;;;;;;;14.13;8.43;;;;;;;16.11;48.68;99463.47;5047229;28;20099;-50
2021/10/13 10:06:49;;;;;;;13.57;8.35;;;;;;;16.47;48.09;99472.81;5031527;28;20052;-48
2021/10/13 10:09:19;;;;;;;12.57;8.85;;;;;;;16.71;48.60;99468.00;5049429;28;20021;-48
2021/10/13 10:11:46;;;;;;;11.55;8.80;;;;;;;17.21;46.66;99471.53;5049251;28;20446;-48
2021/10/13 10:14:37;;;;;;;10.90;8.25;;;;;;;17.19;46.18;99466.41;5050033;28;20036;-48
2021/10/13 10:17:06;;;;;;;10.40;8.02;;;;;;;16.94;46.80;99466.13;5049875;28;20033;-48
2021/10/13 10:19:58;;;;;;;13.10;8.20;;;;;;;17.00;46.68;99465.94;5049044;28;20111;-48
2021/10/13 10:22:23;;;;;;;10.48;7.55;;;;;;;16.45;47.86;99474.94;5045207;28;20142;-48
2021/10/13 10:24:50;;;;;;;9.55;7.65;;;;;;;16.22;47.57;99465.19;5049808;28;20481;-47
2021/10/13 10:27:29;;;;;;;16.45;8.05;;;;;;;15.99;47.68;99474.25;5049953;28;20390;-48
2021/10/13 10:30:09;;;;;;;9.48;7.35;;;;;;;15.99;47.39;99471.56;5049727;28;20437;-47
2021/10/13 10:32:39;;;;;;;9.02;7.40;;;;;;;15.72;48.39;99471.41;5049680;28;20029;-48
2021/10/13 10:35:05;;;;;;;8.90;7.30;;;;;;;15.67;47.79;99471.31;5049415;28;20028;-52
2021/10/13 10:37:51;;;;;;;9.52;7.47;;;;;;;15.81;48.14;99473.47;5049641;28;20021;-49
2021/10/13 10:40:27;;;;;;;12.27;8.00;;;;;;;16.00;48.50;99470.53;5049418;28;20025;-48
2021/10/13 10:42:57;;;;;;;10.95;7.82;;;;;;;16.55;47.04;99471.56;5050201;28;20049;-49
2021/10/13 10:45:24;;;;;;;11.98;8.90;;;;;;;16.59;47.45;99470.00;5049305;28;20060;-46
2021/10/13 10:47:52;;;;;;;11.85;8.43;;;;;;;16.74;46.68;99478.25;5049449;28;20020;-48
2021/10/13 10:50:54;;;;;;;11.50;8.57;;;;;;;16.64;47.36;99478.13;5049874;28;20457;-48
2021/10/13 10:53:32;;;;;;;;;;;;;;;17.11;47.32;99471.41;5049660;28;20029;-48
2021/10/13 10:56:00;;;;;;;12.02;8.50;;;;;;;17.50;46.58;99472.06;5049648;28;20454;-48
2021/10/13 10:58:30;;;;;;;14.02;9.68;;;;;;;17.22;46.42;99466.97;5049487;28;20028;-48
2021/10/13 11:01:05;;;;;;;13.32;10.13;;;;;;;17.40;45.52;99471.97;5049571;28;20053;-47
2021/10/13 11:03:36;;;;;;;15.88;8.40;;;;;;;17.19;46.18;99462.88;5049129;28;20027;-47
2021/10/13 11:06:21;;;;;;;15.02;8.00;;;;;;;17.25;45.91;99469.97;5049125;28;20112;-47
2021/10/13 11:08:50;;;;;;;10.40;7.97;;;;;;;16.73;46.77;99465.84;5049400;28;20225;-48
2021/10/13 11:11:15;;;;;;;13.13;8.20;;;;;;;16.70;46.08;99465.56;5049429;28;20025;-47
2021/10/13 11:13:41;;;;;;;15.23;9.85;;;;;;;17.43;45.42;99467.97;5050715;28;20021;-47
2021/10/13 11:16:09;;;;;;;12.82;8.30;;;;;;;17.46;44.55;99460.22;5051648;28;20021;-48
2021/10/13 11:18:35;;;;;;;10.93;8.35;;;;;;;17.10;46.11;99461.75;5052723;28;20021;-46
2021/10/13 11:21:10;;;;;;;10.30;8.00;;;;;;;16.51;46.44;99470.44;5053060;28;20079;-47
2021/10/13 11:23:36;;;;;;;12.05;8.13;;;;;;;16.54;46.30;99473.41;5052933;28;20442;-47
2021/10/13 11:26:01;;;;;;;9.57;7.82;;;;;;;16.73;46.57;99475.81;5052769;28;20048;-48
2021/10/13 11:28:35;;;;;;;10.13;8.05;;;;;;;17.31;46.26;99470.81;5052733;28;20024;-48
2021/10/13 11:31:05;;;;;;;10.75;8.10;;;;;;;17.67;45.39;99465.75;5052992;28;20083;-46